Miercoles, 01 de Octubre del 2014

portal contactenos mapa del sitio buscar Revisar Correo Corporativo

Reporte METAR Consolidado

|| Reporte TAF Consolidado ||

Informe METAR emitido cada hora.

METAR

ESTACIÓN

AEROPUERTO

HORA UTC

DESCRIPCIÓN

SLGM

Guayaramerín

10-49S|65-20W

23:00

SLGM 012300Z 32004KT 7000 FEW020 FEW023CB SCT080 BKN200 30/21 Q1007 A2974 HR60 FU CB NW=

SLRI

Riberalta

11-00S|66-04W

23:00

SLRI 012300Z 00000KT 4000 FU SCT015 FEW020CB BKN200 30/24 Q1009 A2980 HR70 CB W=

SLCO

Cobija

11-02S|68-47W

22:00

SLCO 012200Z 36012KT 8000 FEW020 FEW027CB BKN070 OVC200 24/23 Q1011 A2986 983.8 HR90 FU CB N=

SLJO

San Joaquin

13-03S|64-39W

22:00

SLJO 012200Z 00000KT 7000 NSC 31/23 Q1008 A2979 HR64 FU CS RWY NML=

SLRA

San Ramón

13-15S|64-36W

22:00

SLRA 012200Z 00000KT 7000 FEW017 FEW020CB BKN200 30/20 Q1008 A2979 HR56 FU CB SW RWY NML=

SLMG

San Magdalena

13-15S|64-03W

23:00

SLMG 012300Z 00000KT 8000 NSC 27/23 Q1009 A2982 HR74 FU RWY NML=

SLBU

Baures

13-39S|63-42W

22:00

SLBU 012200Z 32005KT 8000 SCT017 BKN200 32/23 Q1009 A2982 HR62 FU RWY NML=

SLSA

Santa Ana de Yacuma

13-45S|65-26W

23:00

SLSA 012300Z 28005KT 7000 TS VCSH SCT020 FEW023CB BKN200 27/22 Q1008 A2979 HR76 FU CB/SH E/W TS W=

SLSR

Santa Rosa

14-04S|66-47W

22:00

SLSR 012200Z 35004KT 9999 NSC 35/24 Q1003 A2963 HR55 CI RWY NML=

SLRY

Reyes

14-18S|67-21W

22:00

SLRY 012200Z 32003KT 9999 FEW020 SCT200 35/21 Q1009 A2981 HR46 RWY OPR 1 000M=

SLRQ

Rurrenabaque

14-25S|67-29W

22:00

SLRQ 012200Z 00000KT 9999 FEW020TCU BKN200 33/27 Q1008 A2978 TCU/NE HR74=

SLAP

Apolo

14-44S|68-24W

17:00

SLAPO 121700Z NIL=

SLTR

Trinidad

14-49S|64-54W

02:00

SLTR 020200Z 34007KT 8000 FEW020 FEW023CB OVC200 28/21 Q1012 A2991 994.3 HR68 FU CB/LT N NOSIG=

SLSB

San Borja

14-51S|66-44W

23:00

SLSB 012300Z 00000KT 9999 NSC 31/24 Q1008 A2979 CI HR68 RWY NML=

SLSM

San Ignacio de Moxos

14-57S|65-38W

22:00

SLSM 012200Z 00000KT 9999 FEW017 FEW023CB 34/24 Q1007 A2974 HR55 FU CB NE RWY NML=

SLAS

Ascención de Guarayos

15-55S|63-09W

23:00

SLAS 012300Z 00000KT 5000 FU FEW023 SCT070 OVC200 23/22 Q1012 A2988 HR92 RETS RWY WET OPR=

SLCP

Concepción

16-08S|62-01W

22:00

SLCP 012200Z 19010KT 5000 FU BKN020 FEW027CB BKN200 24/21 Q1015 A2997 HR80 CB/SH SE/SW/NW RWY NML=

SLLP

Internaciónal El Alto

16-08S|68-10W

02:00

SLLP 020200Z 08008KT 9999 FEW015 FEW017CB BKN200 06/02 Q1040 A3071 629.3 CB/LT/N/SW AC HR80 NOSIG=

SLJV

San Javier

16-16S|62-28W

22:00

SLJV 012200Z 18010KT 5000 TS FU BKN020 FEW030CB OVC200 25/19 Q1012 A2988 HR70 CB/TS SE/S/SW RWY NML=

SLTI

San Matías

16-20S|58-24W

22:00

SLTI 012200Z 00000KT 8000 SCT020 32/27 Q1015 A2997 HR74 FU RWY NML=

SLSI

San Ignacio de Velasco

16-23S|60-57W

23:00

SLSI 012300Z 00000KT 9999 SCT020 FEW030CB BKN200 29/24 Q1013 A2991 HR68 CB/S/SW RWY NML=

SLCB

Cochabamba

17-25S|66-10W

02:00

SLCB 020200Z 13004KT 9999 FEW027 BKN200 15/06 Q1030 A3042 755.4 HR54 AC FU NOSIG=

SLCN

Charaña

17-35S|69-25W

-

Mensaje no Recibido

SLVR

Internaciónal Viru Viru

17-38S|63-08W

02:00

SLVR 020200Z 16010KT 9999 NSC 22/20 Q1016 A3002 HR86 NOSIG=

SLET

El Trompillo

17-48S|63-10W

23:00

SLET 012300Z 15007KT 9999 FEW017 BKN200 24/20 Q1013 A2993 HR75 NOSIG=

SLJE

San José de Chiquitos

17-49S|60-44W

22:00

SLJE 012200Z 36008KT 5000 TS VCSH BKN017 SCT020CB OVC200 30/24 Q1014 A2994 HR58 FU CB/TS/SH TODAS DIRECC RWY NML=

SLOR

Oruro

17-57S|67-04W

02:00

SLOR 020200Z 19003KT 9999 FEW013 BKN200 07/02 Q1038 A3066 658.2 AC HR71=

SLRB

Roboré

18-19S|59-45W

23:00

SLRB 012300Z 30019KT 9999 SCT025CB 28/24 Q1014 A2994 HR78 CB/LT NW/N/NE RWY NML=

SLVG

Valle Grande

18-28S|64-05W

21:00

SLVG 012100Z 17005KT 9999 BKN023 OVC070 14/13 Q1027 A3033 HR95 RETSRA RWY WET OPR=

SLPS

Puerto Suárez

18-58S|57-49W

23:00

SLPS 012300Z 00000KT 9000 FEW027CB OVC200 31/24 Q1010 A2983 HR66 FU CB/LT SW=

SLSU

Sucre

19-00S|65-17W

23:00

SLSU 012300Z 05006KT 6000 -RA SCT003 BKN008 OVC070 10/10 Q1034 A3055 HR98 ST BAJOS TODAS DIRECC=

SLPO

Potosí

19-32S|65-43W

20:00

SLPO 012000Z 04006KT 9999 SCT020 FEW023CB SCT200 16/M01 Q1035 A3056 HR39 CB/SE=

SLAG

Monteagudo

19-49S|63-58W

21:00

SLAG 012100Z 00000KT 2000 -RA BKN005 OVC070 19/18 Q1023 A3021 HR96 RWY CLSD=

SLCA

Camiri

20-00S|63-31W

23:00

SLCA 012300Z 0000KT 9999 BKN020 OVC070 18/17 Q1018 A3006 HR94 RWY WET INOP=

SLUY

Uyuni

20-27S|62-52W

23:00

SLUY 012300Z 34005KT 7000 VCTSSH FEW012 FEW023CB SCT200 14/03 Q1035 A3049 657.2 CB/TS/SH NW/N/NE AC HR22=

SLVM

Villamontes

21-15S|63-24W

21:00

SLVM 012100Z 36004KT 9999 FEW027 BKN070 OVC200 25/19 Q1016 A3000 HR70=

SLTJ

Tarija

21-33S|64-42W

23:00

SLTJ 012300Z 16008KT 9999 BKN030 BKN070 18/13 Q1024 A3025 HR72 CI=

SLYA

Yacuiba

21-57S|63-39W

23:00

SLYA 012300Z 00000KT 9999 SCT070 BKN200 23/19 Q1018 A3006 HR77=

SLBJ

Bermejo

22-46S|64-18W

21:00

SLBJ 012100Z 18004KT 9999 SCT015 BKN070 29/21 Q1012 A2988 HR66=